Řízení letového provozu České republiky
Letiste: LKPR Aktualizace: 24.03.2019 21:31:06  UTC
 METAR LKPR 24.03. 21:30 ...
METAR LKPR 242130Z 31005KT 9999 OVC032 07/03 Q1019 NOSIG RMK REG QNH 1015=
 TAF LKPR 24.03. 17:00 ...
TAF LKPR 241700Z 2418/2600 34010KT 9999 BKN030      BECMG 2501/2503 28010KT      TEMPO 2509/2519 30016G32KT 4000 -SHRA BKN018      PROB30 TEMPO 2513/2517 2500 SHRASN BKN012TCU      BECMG 2519/2521 4000 BR BKN013=